METAR Data
IDs: Format: Raw Decoded Include TAF

Data at: 1422 UTC 12 Dec 2018

PANW 121356Z AUTO 26007KT 10SM CLR M13/M16 A2922 RMK AO2 SLP913 T11331156 FZRANO
PANW 121256Z AUTO 28006KT 10SM CLR M12/M15 A2920 RMK AO2 SLP906 T11221150 FZRANO
PANW 121156Z AUTO 28008KT 10SM FEW060 BKN100 M13/M16 A2919 RMK AO2 SLP902 T11331156 11128 21139 53011 FZRANO
PANW 121056Z AUTO 28008KT 10SM BKN070 M13/M16 A2918 RMK AO2 SLP898 T11331156 FZRANO
PANW 120956Z AUTO 28008KT 10SM FEW070 M13/M16 A2917 RMK AO2 SLP894 T11331156 FZRANO
PANW 120856Z AUTO 29008KT 10SM CLR M14/M16 A2916 RMK AO2 SLP891 T11391156 410111150 53006 FZRANO
PANW 120756Z AUTO 26009KT 10SM CLR M14/M16 A2915 RMK AO2 SLP888 T11391156 FZRANO
PANW 120656Z AUTO 28008KT 10SM CLR M13/M15 A2915 RMK AO2 SLP886 T11331150 FZRANO
PANW 120556Z AUTO 27005KT 10SM CLR M14/M15 A2914 RMK AO2 SLP885 T11391150 11061 21150 53004 FZRANO
PANW 120456Z AUTO 27005KT 10SM CLR M13/M15 A2913 RMK AO2 SLP879 T11281150 FZRANO
PANW 120356Z AUTO 27009KT 10SM CLR M11/M14 A2913 RMK AO2 SLP880 T11111139 FZRANO
PANW 120256Z AUTO 26008KT 10SM CLR M11/M13 A2913 RMK AO2 SLP880 T11061133 53008 FZRANO
PANW 120156Z AUTO 25007KT 10SM CLR M10/M13 A2912 RMK AO2 SLP877 T11001128 FZRANO
PANW 120056Z AUTO 26010KT 10SM CLR M08/M12 A2911 RMK AO2 SLP875 T10781117 FZRANO
PANW 112356Z AUTO 27008KT 10SM FEW055 OVC070 M06/M11 A2910 RMK AO2 SLP872 60000 T10611106 11061 21067 51019 FZRANO
PANW 112256Z AUTO 28009KT 10SM FEW042 BKN060 OVC070 M06/M10 A2909 RMK AO2 SLP866 T10611100 FZRANO
PANW 112156Z AUTO 24006KT 10SM OVC070 M06/M09 A2907 RMK AO2 SNE05B31E49 SLP860 P0000 T10611089 FZRANO
PANW 112056Z AUTO 24004KT 9SM -SN OVC060 M07/M08 A2905 RMK AO2 SLP852 P0000 60000 T10671083 51042 FZRANO
PANW 111956Z AUTO 25005KT 9SM -SN FEW043 OVC055 M07/M08 A2901 RMK AO2 SLP840 P0000 T10671083 FZRANO
PANW 111856Z AUTO 27008KT 5SM -SN SCT027 SCT034 OVC041 M06/M09 A2897 RMK AO2 SNE1758B32 SLP825 P0000 T10611089 FZRANO
PANW 111756Z AUTO 27009KT 9SM -SN OVC042 M06/M09 A2892 RMK AO2 SLP809 P0000 60000 T10611089 11028 21061 53037 FZRANO
PANW 111656Z AUTO 27010KT 9SM -SN OVC034 M06/M08 A2888 RMK AO2 SLP797 P0000 T10611083 FZRANO
PANW 111556Z AUTO 26011KT 9SM -SN BKN043 OVC050 M06/M08 A2884 RMK AO2 SLP784 P0000 T10611078 FZRANO
PANW 111528Z AUTO 27010KT 6SM -SN BR FEW024 SCT029 OVC037 M06/M07 A2883 RMK AO2 P0000 FZRANO
PANW 111518Z AUTO 27012KT 4SM -SN BR BKN023 OVC031 M06/M07 A2882 RMK AO2 P0000 FZRANO
PANW 111456Z AUTO 27015KT 2SM -SN BR FEW008 OVC023 M06/M07 A2881 RMK AO2 SLP772 P0000 60000 T10561067 52038 FZRANO
PANW 111427Z AUTO 27013KT 1 3/4SM -SN BR FEW008 OVC017 M05/M06 A2879 RMK AO2 P0000 FZRANO
PANW 111356Z AUTO 29015G22KT 2 1/2SM -SN BR SCT017 BKN022 OVC027 M04/M06 A2877 RMK AO2 SLP759 P0000 T10441056 FZRANO
PANW 111349Z AUTO 29017G22KT 2 1/2SM -SN BR FEW008 OVC027 M04/M06 A2877 RMK AO2 P0000 FZRANO
PANW 111327Z AUTO 30018KT 4SM -SN BR OVC025 M04/M05 A2876 RMK AO2 P0000 FZRANO
PANW 111256Z AUTO 30014G20KT 2SM -SN BR BKN017 OVC023 M03/M04 A2874 RMK AO2 VIS 1 3/4V2 1/2 SLP746 P0000 T10331044 FZRANO
PANW 111214Z AUTO 30014KT 1 1/2SM -SN BR FEW024 BKN029 OVC041 M03/M03 A2871 RMK AO2 P0000 FZRANO
PANW 111156Z AUTO 31010KT 2 1/2SM -SN BR FEW022 BKN029 OVC041 M03/M03 A2870 RMK AO2 SLP733 P0000 60001 70001 T10281028 11006 21028 53024 FZRANO
PANW 111145Z AUTO 32012KT 2SM -SN BR SCT016 BKN032 OVC039 M03/M03 A2869 RMK AO2 P0000 FZRANO
PANW 111115Z AUTO 31011KT 1 3/4SM -SN BR FEW009 SCT014 OVC027 M03/M03 A2867 RMK AO2 P0000 FZRANO
PANW 111056Z AUTO 31010KT 2 1/2SM -SN BR BKN020 OVC026 M03/M03 A2866 RMK AO2 VIS 1 1/2V3 SLP720 P0000 T10281028 FZRANO
PANW 111037Z AUTO 32012KT 1 1/4SM -SN BR SCT012 OVC018 M03/M03 A2865 RMK AO2 P0000 FZRANO
PANW 111027Z AUTO 32010KT 1SM -SN BR FEW004 SCT012 OVC017 M03/M03 A2864 RMK AO2 P0000 FZRANO
PANW 111017Z AUTO 33010KT 3/4SM -SN BR FEW004 BKN013 OVC022 M03/M03 A2864 RMK AO2 P0000 FZRANO
PANW 111015Z AUTO 33012KT 1SM -SN BR FEW004 BKN013 OVC020 M02/M03 A2864 RMK AO2 P0000 FZRANO
PANW 110956Z AUTO 33009KT 1 1/2SM -SN BR FEW004 OVC021 M02/M03 A2863 RMK AO2 SLP709 P0000 T10221028 FZRANO
PANW 110954Z AUTO 33010KT 1 1/2SM -SN BR FEW004 OVC021 M02/M03 A2863 RMK AO2 P0000 FZRANO
PANW 110930Z AUTO 34008KT 2 1/2SM -SN BR SCT004 OVC025 M02/M02 A2862 RMK AO2 P0000 FZRANO
PANW 110914Z AUTO 34010KT 4SM -SN BR BKN004 OVC011 M02/M02 A2861 RMK AO2 P0000 FZRANO
PANW 110905Z AUTO 33008KT 4SM -SN BR BKN006 OVC013 M01/M02 A2860 RMK AO2 CIG 003V009 P0000 FZRANO
PANW 110855Z AUTO 34007KT 3SM -SN BR SCT006 OVC013 M01/M01 A2860 RMK AO2 UPB09E29SNE09B29 SLP700 P0001 60001 T10111011 400061011 53013 FZRANO
PANW 110854Z AUTO 34008KT 3SM -SN BR BKN006 OVC013 M01/M01 A2860 RMK AO2 UPB09E29SNE09B29 CIG 004V009 P0001 400061011 FZRANO
PANW 110841Z AUTO 33004KT 2SM -SN BR FEW008 OVC013 M01/M01 A2860 RMK AO2 UPB09E29SNE09B29 P0000 FZRANO
PANW 110837Z AUTO 33003KT 2SM -SN BR OVC016 M01/M01 A2859 RMK AO2 UPB09E29SNE09B29 P0000 FZRANO
PANW 110828Z AUTO 34003KT 2 1/2SM UP BR BKN014 OVC019 M01/M01 A2859 RMK AO2 UPB09SNE09 P0000 FZRANO
PANW 110824Z AUTO 34003KT 3SM UP BR OVC018 M01/M01 A2859 RMK AO2 UPB09SNE09 P0000 FZRANO
PANW 110811Z AUTO 35003KT 2SM UP BR SCT011 OVC020 M01/M01 A2858 RMK AO2 UPB09SNE09 P0000 FZRANO
PANW 110756Z AUTO 35003KT 1 1/2SM -SN BR BKN011 OVC022 M01/M01 A2858 RMK AO2 UPB34E41SNE34B41 SLP693 P0000 T10061006 FZRANO
PANW 110736Z AUTO 00000KT 1 1/4SM UP BR OVC011 M01/M01 A2858 RMK AO2 UPB34SNE34 CIG 009V013 P0000 FZRANO
PANW 110728Z AUTO 00000KT 1SM -SN BR OVC011 M01/M01 A2857 RMK AO2 P0000 FZRANO
PANW 110716Z AUTO 00000KT 1SM -SN BR SCT003 OVC009 M01/M01 A2857 RMK AO2 CIG 006V011 P0000 FZRANO
PANW 110656Z AUTO 00000KT 1 1/4SM -SN BR BKN003 OVC007 M01/M01 A2856 RMK AO2 SLP687 P0000 T10061006 FZRANO
PANW 110651Z AUTO 06003KT 1SM -SN BR OVC003 M01/M01 A2856 RMK AO2 P0000 FZRANO
PANW 110639Z AUTO 07003KT 1SM -SN BR OVC005 M01/M01 A2856 RMK AO2 CIG 002V010 P0000 FZRANO
PANW 110617Z AUTO 08003KT 3/4SM -SN BR BKN003 BKN008 OVC012 M01/M01 A2856 RMK AO2 P0000 FZRANO
PANW 110556Z AUTO 09003KT 1SM -SN BR BKN003 OVC014 M01/M01 A2856 RMK AO2 SLP685 P0000 60000 T10061006 10000 21006 53002 FZRANO
PANW 110543Z AUTO 09004KT 1 1/2SM -SN BR OVC003 M01/M01 A2856 RMK AO2 CIG 002V006 P0000 FZRANO
PANW 110534Z AUTO 09004KT 1SM -SN BR OVC005 M01/M01 A2856 RMK AO2 CIG 002V007 P0000 FZRANO
PANW 110526Z AUTO 10004KT 3/4SM -SN BR OVC005 M01/M01 A2856 RMK AO2 CIG 001V007 P0000 FZRANO
PANW 110519Z AUTO 10004KT 3/4SM -SN BR OVC003 00/M01 A2855 RMK AO2 CIG 001V007 P0000 FZRANO
PANW 110403Z AUTO 11006KT 3/4SM BR OVC003 00/00 A2855 RMK AO2 FZRANO
PANW 110356Z AUTO 12006KT 1 1/2SM BR OVC003 00/M01 A2855 RMK AO2 SLP682 T00001006 FZRANO
PANW 110323Z AUTO 08006KT 2SM BR OVC003 00/M01 A2855 RMK AO2 FZRANO
PANW 110256Z AUTO 09006KT 7SM OVC003 00/M01 A2855 RMK AO2 SLP683 60000 T00001006 56009 FZRANO